createdAt,value
2018-02-18T00:00:34.911Z,100780.85
2018-02-18T00:03:02.926Z,100782.55
2018-02-18T00:05:29.188Z,100784.55
2018-02-18T00:07:55.463Z,100784.13
2018-02-18T00:10:21.744Z,100788.43
2018-02-18T00:12:48.001Z,100786.42
2018-02-18T00:15:15.006Z,100790.14
2018-02-18T00:17:41.291Z,100795.11
2018-02-18T00:20:08.280Z,100792.30
2018-02-18T00:22:34.681Z,100796.23
2018-02-18T00:25:01.897Z,100807.16
2018-02-18T00:27:28.950Z,100810.14
2018-02-18T00:29:55.262Z,100807.30
2018-02-18T00:32:21.505Z,100806.17
2018-02-18T00:34:48.665Z,100809.53
2018-02-18T00:37:15.694Z,100813.95
2018-02-18T00:39:41.977Z,100813.13
2018-02-18T00:42:08.273Z,100817.16
2018-02-18T00:44:35.305Z,100818.64
2018-02-18T00:47:01.557Z,100817.39
2018-02-18T00:49:28.535Z,100817.00
2018-02-18T00:51:54.769Z,100815.51
2018-02-18T00:54:21.075Z,100817.64
2018-02-18T00:56:47.349Z,100819.88
2018-02-18T00:59:13.628Z,100825.16
2018-02-18T01:01:40.638Z,100829.27
2018-02-18T01:04:06.896Z,100827.80
2018-02-18T01:06:33.904Z,100828.00
2018-02-18T01:09:00.142Z,100831.67
2018-02-18T01:11:26.399Z,100836.23
2018-02-18T01:13:53.400Z,100840.25
2018-02-18T01:16:19.684Z,100839.63
2018-02-18T01:18:46.694Z,100839.25
2018-02-18T01:21:12.986Z,100841.40
2018-02-18T01:23:39.245Z,100839.42
2018-02-18T01:26:05.525Z,100836.64
2018-02-18T01:28:32.577Z,100844.27
2018-02-18T01:30:59.575Z,100842.67
2018-02-18T01:33:25.825Z,100842.61
2018-02-18T01:35:52.095Z,100843.45
2018-02-18T01:38:18.382Z,100844.11
2018-02-18T01:40:44.650Z,100847.48
2018-02-18T01:43:10.939Z,100849.34
2018-02-18T01:45:37.211Z,100846.13
2018-02-18T01:48:03.462Z,100850.21
2018-02-18T01:50:35.666Z,100852.97
2018-02-18T01:53:01.895Z,100853.74
2018-02-18T01:55:28.137Z,100849.73
2018-02-18T01:57:55.114Z,100860.80
2018-02-18T02:00:21.374Z,100848.70
2018-02-18T02:02:47.629Z,100853.90
2018-02-18T02:05:14.648Z,100849.42
2018-02-18T02:07:40.923Z,100855.76
2018-02-18T02:10:07.923Z,100860.04
2018-02-18T02:12:34.159Z,100856.45
2018-02-18T02:15:00.401Z,100856.75
2018-02-18T02:17:26.635Z,100859.75
2018-02-18T02:19:52.883Z,100863.08
2018-02-18T02:22:19.864Z,100865.02
2018-02-18T02:24:46.140Z,100869.40
2018-02-18T02:27:12.376Z,100865.08
2018-02-18T02:29:38.623Z,100869.88
2018-02-18T02:32:05.652Z,100870.80
2018-02-18T02:34:31.897Z,100877.25
2018-02-18T02:36:58.188Z,100871.94
2018-02-18T02:39:24.459Z,100876.56
2018-02-18T02:41:51.486Z,100880.89
2018-02-18T02:44:17.744Z,100877.42
2018-02-18T02:46:44.748Z,100882.30
2018-02-18T02:49:10.998Z,100888.81
2018-02-18T02:51:37.249Z,100887.16
2018-02-18T02:54:03.513Z,100891.08
2018-02-18T02:56:29.770Z,100893.73
2018-02-18T02:58:56.007Z,100893.11
2018-02-18T03:01:22.229Z,100893.75
2018-02-18T03:03:48.468Z,100900.56
2018-02-18T03:06:14.790Z,100899.09
2018-02-18T03:08:41.047Z,100901.10
2018-02-18T03:11:08.035Z,100897.92
2018-02-18T03:13:34.258Z,100902.29
2018-02-18T03:16:00.519Z,100910.30
2018-02-18T03:18:26.779Z,100897.67
2018-02-18T03:20:53.768Z,100907.31
2018-02-18T03:23:20.045Z,100906.91
2018-02-18T03:25:46.292Z,100910.34
2018-02-18T03:28:13.304Z,100906.59
2018-02-18T03:30:39.537Z,100912.34
2018-02-18T03:33:05.816Z,100902.92
2018-02-18T03:35:32.128Z,100911.31
2018-02-18T03:37:59.134Z,100908.05
2018-02-18T03:40:25.400Z,100913.24
2018-02-18T03:42:52.390Z,100918.77
2018-02-18T03:45:18.638Z,100916.74
2018-02-18T03:47:44.947Z,100918.66
2018-02-18T03:50:11.213Z,100920.28
2018-02-18T03:52:37.441Z,100933.64
2018-02-18T03:55:03.727Z,100929.52
2018-02-18T03:57:29.998Z,100926.47
2018-02-18T03:59:56.292Z,100929.69
2018-02-18T04:02:22.557Z,100929.73
2018-02-18T04:04:48.869Z,100936.55
2018-02-18T04:07:15.135Z,100932.03
2018-02-18T04:09:41.389Z,100936.02
2018-02-18T04:12:08.401Z,100932.00
2018-02-18T04:14:34.647Z,100929.81
2018-02-18T04:17:01.659Z,100939.73
2018-02-18T04:19:27.915Z,100937.53
2018-02-18T04:21:54.214Z,100939.11
2018-02-18T04:24:20.459Z,100933.84
2018-02-18T04:26:46.762Z,100938.81
2018-02-18T04:29:13.036Z,100944.76
2018-02-18T04:31:39.304Z,100940.71
2018-02-18T04:34:05.563Z,100937.14
2018-02-18T04:36:31.820Z,100936.61
2018-02-18T04:38:58.118Z,100932.77
2018-02-18T04:41:24.372Z,100935.41
2018-02-18T04:43:50.619Z,100936.74
2018-02-18T04:46:18.061Z,100937.52
2018-02-18T04:48:44.333Z,100935.88
2018-02-18T04:51:10.586Z,100932.58
2018-02-18T04:53:36.832Z,100941.87
2018-02-18T04:56:03.064Z,100942.17
2018-02-18T04:58:29.488Z,100941.83
2018-02-18T05:00:55.752Z,100942.09
2018-02-18T05:03:21.975Z,100951.43
2018-02-18T05:05:48.208Z,100945.45
2018-02-18T05:08:15.227Z,100947.61
2018-02-18T05:10:41.503Z,100952.64
2018-02-18T05:13:08.491Z,100953.04
2018-02-18T05:15:34.747Z,100954.41
2018-02-18T05:18:01.017Z,100951.70
2018-02-18T05:20:28.036Z,100956.63
2018-02-18T05:22:54.305Z,100953.98
2018-02-18T05:25:20.546Z,100964.80
2018-02-18T05:27:46.826Z,100962.59
2018-02-18T05:30:13.049Z,100972.19
2018-02-18T05:32:39.278Z,100977.55
2018-02-18T05:35:05.523Z,100976.41
2018-02-18T05:37:31.776Z,100984.91
2018-02-18T05:39:58.022Z,100991.28
2018-02-18T05:42:24.270Z,101000.03
2018-02-18T05:44:50.550Z,100998.96
2018-02-18T05:47:17.519Z,100998.52
2018-02-18T05:49:43.776Z,100998.96
2018-02-18T05:52:11.825Z,101005.99
2018-02-18T05:54:38.077Z,101009.47
2018-02-18T05:57:04.337Z,101008.28
2018-02-18T05:59:30.573Z,101012.87
2018-02-18T06:01:56.829Z,101014.80
2018-02-18T06:04:23.108Z,101015.30
2018-02-18T06:06:49.350Z,101011.47
2018-02-18T06:09:15.638Z,101015.05
2018-02-18T06:11:41.843Z,101021.74
2018-02-18T06:14:08.129Z,101024.98
2018-02-18T06:16:34.387Z,101030.61
2018-02-18T06:19:00.627Z,101027.60
2018-02-18T06:21:27.601Z,101029.40
2018-02-18T06:23:53.826Z,101035.69
2018-02-18T06:26:20.059Z,101032.44
2018-02-18T06:28:46.305Z,101038.10
2018-02-18T06:31:12.532Z,101039.12
2018-02-18T06:33:38.807Z,101038.87
2018-02-18T06:36:05.820Z,101043.21
2018-02-18T06:38:32.104Z,101046.52
2018-02-18T06:40:58.379Z,101037.22
2018-02-18T06:43:24.668Z,101034.94
2018-02-18T06:45:50.936Z,101036.61
2018-02-18T06:48:17.202Z,101038.72
2018-02-18T06:50:51.193Z,101043.73
2018-02-18T06:53:17.425Z,101044.16
2018-02-18T06:55:43.652Z,101047.78
2018-02-18T06:58:09.944Z,101050.03
2018-02-18T07:00:36.197Z,101051.66
2018-02-18T07:03:02.557Z,101051.53
2018-02-18T07:05:28.828Z,101049.94
2018-02-18T07:07:55.049Z,101052.66
2018-02-18T07:10:21.342Z,101052.96
2018-02-18T07:12:47.604Z,101058.32
2018-02-18T07:15:13.855Z,101056.64
2018-02-18T07:17:40.183Z,101052.02
2018-02-18T07:20:06.385Z,101056.02
2018-02-18T07:22:33.410Z,101060.94
2018-02-18T07:24:59.674Z,101062.53
2018-02-18T07:27:25.962Z,101060.73
2018-02-18T07:29:52.208Z,101065.98
2018-02-18T07:32:19.219Z,101071.22
2018-02-18T07:34:45.474Z,101066.91
2018-02-18T07:37:11.820Z,101068.21
2018-02-18T07:39:38.110Z,101072.55
2018-02-18T07:42:04.454Z,101073.31
2018-02-18T07:44:30.715Z,101081.77
2018-02-18T07:46:56.997Z,101074.91
2018-02-18T07:49:23.260Z,101068.58
2018-02-18T07:51:49.529Z,101072.47
2018-02-18T07:54:15.802Z,101073.63
2018-02-18T07:56:42.053Z,101076.35
2018-02-18T07:59:08.303Z,101070.59
2018-02-18T08:01:34.529Z,101070.30
2018-02-18T08:04:01.537Z,101075.12
2018-02-18T08:06:27.831Z,101070.23
2018-02-18T08:08:54.101Z,101074.39
2018-02-18T08:11:20.335Z,101065.94
2018-02-18T08:13:46.577Z,101069.66
2018-02-18T08:16:13.565Z,101071.81
2018-02-18T08:18:39.876Z,101070.00
2018-02-18T08:21:06.129Z,101071.93
2018-02-18T08:23:32.370Z,101075.36
2018-02-18T08:25:58.692Z,101077.06
2018-02-18T08:28:24.990Z,101076.63
2018-02-18T08:30:52.038Z,101076.81
2018-02-18T08:33:19.064Z,101075.95
2018-02-18T08:35:45.387Z,101081.68
2018-02-18T08:38:11.661Z,101088.21
2018-02-18T08:40:37.908Z,101079.11
2018-02-18T08:43:04.167Z,101083.34
2018-02-18T08:45:30.433Z,101086.16
2018-02-18T08:47:57.425Z,101081.35
2018-02-18T08:50:23.743Z,101084.56
2018-02-18T08:52:49.967Z,101084.62
2018-02-18T08:55:16.311Z,101077.70
2018-02-18T08:57:42.593Z,101079.23
2018-02-18T09:00:09.629Z,101077.83
2018-02-18T09:02:35.919Z,101076.34
2018-02-18T09:05:02.236Z,101079.18
2018-02-18T09:07:28.551Z,101085.44
2018-02-18T09:09:54.802Z,101089.66
2018-02-18T09:12:21.088Z,101084.44
2018-02-18T09:14:48.130Z,101085.93
2018-02-18T09:17:15.168Z,101091.05
2018-02-18T09:19:41.491Z,101086.86
2018-02-18T09:22:07.746Z,101092.17
2018-02-18T09:24:34.736Z,101089.66
2018-02-18T09:27:01.737Z,101095.66
2018-02-18T09:29:28.759Z,101096.77
2018-02-18T09:31:55.001Z,101098.00
2018-02-18T09:34:21.303Z,101104.94
2018-02-18T09:36:47.569Z,101107.13
2018-02-18T09:39:14.009Z,101111.02
2018-02-18T09:41:41.013Z,101111.99
2018-02-18T09:44:07.345Z,101117.09
2018-02-18T09:46:33.640Z,101126.10
2018-02-18T09:48:59.927Z,101124.25
2018-02-18T09:51:26.269Z,101120.51
2018-02-18T09:53:53.321Z,101120.53
2018-02-18T09:56:19.592Z,101125.53
2018-02-18T09:58:45.872Z,101128.34
2018-02-18T10:01:12.128Z,101132.63
2018-02-18T10:03:38.408Z,101129.33
2018-02-18T10:06:04.650Z,101129.11
2018-02-18T10:08:30.898Z,101137.16
2018-02-18T10:10:57.188Z,101135.20
2018-02-18T10:13:23.494Z,101129.78
2018-02-18T10:15:49.768Z,101131.64
2018-02-18T10:18:16.022Z,101129.66
2018-02-18T10:20:43.060Z,101130.22
2018-02-18T10:23:09.362Z,101129.61
2018-02-18T10:25:35.619Z,101134.63
2018-02-18T10:28:01.857Z,101136.75
2018-02-18T10:30:28.135Z,101145.34
2018-02-18T10:32:54.384Z,101143.76
2018-02-18T10:35:20.673Z,101136.98
2018-02-18T10:37:46.949Z,101141.30
2018-02-18T10:40:13.205Z,101139.58
2018-02-18T10:42:39.461Z,101137.37
2018-02-18T10:45:05.751Z,101133.59
2018-02-18T10:47:32.059Z,101134.45
2018-02-18T10:49:58.328Z,101130.78
2018-02-18T10:52:24.614Z,101125.17
2018-02-18T10:54:50.911Z,101131.27
2018-02-18T10:57:17.248Z,101139.81
2018-02-18T10:59:43.559Z,101138.73
2018-02-18T11:02:10.611Z,101144.40
2018-02-18T11:04:37.606Z,101139.10
2018-02-18T11:07:03.970Z,101140.91
2018-02-18T11:09:30.264Z,101141.95
2018-02-18T11:11:56.523Z,101142.75
2018-02-18T11:14:22.793Z,101143.27
2018-02-18T11:16:49.086Z,101141.00
2018-02-18T11:19:15.354Z,101139.83
2018-02-18T11:21:41.608Z,101138.42
2018-02-18T11:24:07.904Z,101138.58
2018-02-18T11:26:34.922Z,101137.70
2018-02-18T11:29:01.234Z,101137.88
2018-02-18T11:31:27.560Z,101136.25
2018-02-18T11:33:53.838Z,101135.83
2018-02-18T11:36:20.836Z,101133.31
2018-02-18T11:38:47.082Z,101132.34
2018-02-18T11:41:13.332Z,101131.03
2018-02-18T11:43:40.356Z,101131.95
2018-02-18T11:46:07.170Z,101131.80
2018-02-18T11:48:33.795Z,101127.69
2018-02-18T11:51:00.056Z,101126.55
2018-02-18T11:53:26.370Z,101126.27
2018-02-18T11:55:52.614Z,101125.18
2018-02-18T11:58:18.911Z,101123.53
2018-02-18T12:00:45.161Z,101118.70
2018-02-18T12:03:11.410Z,101119.55
2018-02-18T12:05:37.739Z,101121.59
2018-02-18T12:08:04.017Z,101124.14
2018-02-18T12:10:31.045Z,101124.87
2018-02-18T12:12:57.317Z,101118.86
2018-02-18T12:15:23.617Z,101113.43
2018-02-18T12:17:49.865Z,101125.51
2018-02-18T12:20:16.135Z,101131.70
2018-02-18T12:22:42.429Z,101125.00
2018-02-18T12:25:08.702Z,101113.49
2018-02-18T12:27:34.996Z,101120.78
2018-02-18T12:30:08.333Z,101120.23
2018-02-18T12:32:34.621Z,101117.22
2018-02-18T12:35:00.951Z,101122.09
2018-02-18T12:37:27.213Z,101118.41
2018-02-18T12:40:14.637Z,101113.07
2018-02-18T12:42:40.900Z,101113.96
2018-02-18T12:45:07.922Z,101118.70
2018-02-18T12:47:34.203Z,101112.03
2018-02-18T12:50:00.566Z,101113.58
2018-02-18T12:52:26.832Z,101111.61
2018-02-18T12:54:53.105Z,101108.51
2018-02-18T12:57:19.368Z,101102.87
2018-02-18T12:59:45.643Z,101104.69
2018-02-18T13:02:12.626Z,101103.81
2018-02-18T13:04:38.921Z,101112.80
2018-02-18T13:07:05.958Z,101109.05
2018-02-18T13:09:32.210Z,101103.24
2018-02-18T13:11:58.482Z,101098.09
2018-02-18T13:14:24.908Z,101101.52
2018-02-18T13:16:51.149Z,101099.78
2018-02-18T13:19:17.461Z,101099.20
2018-02-18T13:21:43.831Z,101103.62
2018-02-18T13:24:10.162Z,101096.44
2018-02-18T13:26:36.426Z,101090.91
2018-02-18T13:29:02.708Z,101086.12
2018-02-18T13:31:28.967Z,101089.41
2018-02-18T13:33:55.947Z,101083.64
2018-02-18T13:36:22.227Z,101075.45
2018-02-18T13:38:48.481Z,101082.87
2018-02-18T13:41:14.752Z,101080.71
2018-02-18T13:43:41.768Z,101075.02
2018-02-18T13:46:08.014Z,101076.03
2018-02-18T13:48:34.253Z,101081.96
2018-02-18T13:51:00.540Z,101086.16
2018-02-18T13:53:27.558Z,101082.76
2018-02-18T13:55:53.825Z,101082.16
2018-02-18T13:58:20.079Z,101074.64
2018-02-18T14:00:46.305Z,101073.71
2018-02-18T14:03:12.557Z,101074.58
2018-02-18T14:05:38.835Z,101075.88
2018-02-18T14:08:05.833Z,101081.88
2018-02-18T14:10:32.063Z,101077.48
2018-02-18T14:12:58.334Z,101078.91
2018-02-18T14:15:25.382Z,101084.59
2018-02-18T14:17:52.395Z,101082.56
2018-02-18T14:20:18.673Z,101080.66
2018-02-18T14:22:52.609Z,101075.56
2018-02-18T14:25:18.865Z,101066.75
2018-02-18T14:27:45.561Z,101063.01
2018-02-18T14:30:11.827Z,101066.56
2018-02-18T14:32:38.065Z,101059.66
2018-02-18T14:35:04.379Z,101054.77
2018-02-18T14:37:30.780Z,101051.80
2018-02-18T14:39:57.042Z,101057.33
2018-02-18T14:45:56.062Z,101049.38
2018-02-18T14:51:54.015Z,101051.56
2018-02-18T14:57:34.071Z,101046.89
2018-02-18T15:00:01.068Z,101044.97
2018-02-18T15:02:27.385Z,101049.28
2018-02-18T15:04:53.655Z,101045.84
2018-02-18T15:07:20.008Z,101043.77
2018-02-18T15:09:46.263Z,101043.00
2018-02-18T15:12:13.649Z,101046.53
2018-02-18T15:14:39.947Z,101041.59
2018-02-18T15:17:06.228Z,101042.39
2018-02-18T15:19:32.535Z,101049.70
2018-02-18T15:21:59.024Z,101049.64
2018-02-18T15:24:26.034Z,101044.13
2018-02-18T15:26:52.340Z,101040.73
2018-02-18T15:29:18.623Z,101043.48
2018-02-18T15:31:44.962Z,101047.08
2018-02-18T15:34:11.287Z,101041.58
2018-02-18T15:36:37.631Z,101043.88
2018-02-18T15:39:04.735Z,101038.23
2018-02-18T15:41:30.982Z,101034.98
2018-02-18T15:43:57.997Z,101036.38
2018-02-18T15:46:32.212Z,101034.13
2018-02-18T15:48:58.544Z,101035.62
2018-02-18T15:51:24.892Z,101033.39
2018-02-18T15:53:51.202Z,101038.58
2018-02-18T15:56:17.568Z,101038.05
2018-02-18T15:58:43.878Z,101037.91
2018-02-18T16:01:10.191Z,101039.16
2018-02-18T16:03:36.446Z,101040.14
2018-02-18T16:06:03.480Z,101040.89
2018-02-18T16:08:29.774Z,101035.68
2018-02-18T16:10:56.026Z,101042.23
2018-02-18T16:13:22.345Z,101048.92
2018-02-18T16:15:48.623Z,101036.52
2018-02-18T16:18:15.711Z,101029.88
2018-02-18T16:20:42.765Z,101039.19
2018-02-18T16:23:09.849Z,101028.34
2018-02-18T16:25:36.107Z,101027.78
2018-02-18T16:28:02.406Z,101024.63
2018-02-18T16:30:28.673Z,101027.42
2018-02-18T16:32:54.956Z,101027.06
2018-02-18T16:35:21.250Z,101028.60
2018-02-18T16:37:49.332Z,101034.77
2018-02-18T16:40:16.335Z,101029.36
2018-02-18T16:42:42.626Z,101033.16
2018-02-18T16:45:08.897Z,101031.17
2018-02-18T16:47:35.376Z,101037.25
2018-02-18T16:50:01.747Z,101030.42
2018-02-18T16:52:28.001Z,101032.30
2018-02-18T16:54:54.368Z,101034.41
2018-02-18T16:57:21.379Z,101032.42
2018-02-18T16:59:47.721Z,101026.53
2018-02-18T17:02:14.743Z,101029.67
2018-02-18T17:04:41.065Z,101022.41
2018-02-18T17:07:07.319Z,101022.02
2018-02-18T17:09:33.617Z,101017.42
2018-02-18T17:11:59.897Z,101021.46
2018-02-18T17:14:27.150Z,101020.29
2018-02-18T17:16:54.450Z,101023.59
2018-02-18T17:19:20.700Z,101015.94
2018-02-18T17:21:48.093Z,101022.20
2018-02-18T17:24:15.143Z,101020.37
2018-02-18T17:26:42.164Z,101021.95
2018-02-18T17:29:08.428Z,101022.20
2018-02-18T17:31:34.817Z,101023.31
2018-02-18T17:34:01.102Z,101020.67
2018-02-18T17:36:27.348Z,101021.55
2018-02-18T17:38:53.643Z,101019.88
2018-02-18T17:41:27.682Z,101010.34
2018-02-18T17:43:53.967Z,101010.55
2018-02-18T17:46:20.248Z,101012.77
2018-02-18T17:48:46.591Z,101006.01
2018-02-18T17:51:12.897Z,101007.90
2018-02-18T17:53:39.191Z,101003.17
2018-02-18T17:56:05.486Z,100989.66
2018-02-18T17:58:38.786Z,101001.23
2018-02-18T18:01:05.081Z,101009.19
2018-02-18T18:03:31.390Z,101000.20
2018-02-18T18:05:57.688Z,101003.28
2018-02-18T18:08:24.744Z,101001.39
2018-02-18T18:10:51.051Z,101008.71
2018-02-18T18:13:17.312Z,101008.61
2018-02-18T18:15:43.659Z,101012.67
2018-02-18T18:18:09.961Z,101014.67
2018-02-18T18:20:36.373Z,101004.00
2018-02-18T18:23:02.690Z,101017.72
2018-02-18T18:25:29.081Z,101013.40
2018-02-18T18:27:55.363Z,101007.24
2018-02-18T18:30:21.650Z,101009.66
2018-02-18T18:32:47.992Z,100994.92
2018-02-18T18:35:15.141Z,101002.91
2018-02-18T18:37:42.165Z,101005.50
2018-02-18T18:40:08.471Z,100997.12
2018-02-18T18:42:35.543Z,100999.92
2018-02-18T18:45:01.901Z,101002.16
2018-02-18T18:47:28.968Z,101002.35
2018-02-18T18:49:55.307Z,101000.41
2018-02-18T18:52:21.613Z,100992.62
2018-02-18T18:54:48.644Z,100991.25
2018-02-18T18:57:14.989Z,100996.55
2018-02-18T18:59:42.042Z,100990.62
2018-02-18T19:02:08.332Z,100986.46
2018-02-18T19:04:34.635Z,100985.38
2018-02-18T19:07:01.252Z,100986.72
2018-02-18T19:09:28.617Z,100981.59
2018-02-18T19:11:54.927Z,100984.16
2018-02-18T19:14:21.967Z,100986.08
2018-02-18T19:16:49.018Z,100978.69
2018-02-18T19:19:18.178Z,100979.17
2018-02-18T19:21:44.462Z,100976.70
2018-02-18T19:24:11.502Z,100969.21
2018-02-18T19:26:37.858Z,100963.15
2018-02-18T19:29:04.159Z,100968.59
2018-02-18T19:31:31.312Z,100973.73
2018-02-18T19:33:59.174Z,100972.00
2018-02-18T19:36:26.259Z,100973.59
2018-02-18T19:38:52.592Z,100968.32
2018-02-18T19:41:18.919Z,100973.45
2018-02-18T19:43:45.232Z,100962.92
2018-02-18T19:46:11.535Z,100963.94
2018-02-18T19:48:37.823Z,100968.23
2018-02-18T19:51:05.206Z,100965.28
2018-02-18T19:53:32.243Z,100958.94
2018-02-18T19:55:58.557Z,100953.20
2018-02-18T19:58:24.897Z,100948.16
2018-02-18T20:00:51.249Z,100950.41
2018-02-18T20:03:17.542Z,100949.66
2018-02-18T20:05:43.880Z,100951.58
2018-02-18T20:08:10.220Z,100957.45
2018-02-18T20:10:36.542Z,100953.94
2018-02-18T20:13:02.866Z,100946.30
2018-02-18T20:15:29.174Z,100941.94
2018-02-18T20:17:57.034Z,100935.89
2018-02-18T20:20:24.129Z,100951.08
2018-02-18T20:22:50.493Z,100944.37
2018-02-18T20:25:16.902Z,100939.49
2018-02-18T20:27:43.213Z,100937.95
2018-02-18T20:30:09.535Z,100933.98
2018-02-18T20:32:35.889Z,100933.17
2018-02-18T20:35:02.277Z,100931.70
2018-02-18T20:37:28.599Z,100934.08
2018-02-18T20:39:55.644Z,100934.51
2018-02-18T20:42:22.806Z,100934.72
2018-02-18T20:44:49.877Z,100929.59
2018-02-18T20:47:16.185Z,100926.73
2018-02-18T20:49:42.627Z,100928.67
2018-02-18T20:52:09.017Z,100920.48
2018-02-18T20:54:35.345Z,100923.24
2018-02-18T20:57:01.832Z,100928.01
2018-02-18T20:59:28.132Z,100926.67
2018-02-18T21:01:55.328Z,100927.16
2018-02-18T21:04:21.622Z,100918.40
2018-02-18T21:06:48.682Z,100922.38
2018-02-18T21:09:14.963Z,100924.52
2018-02-18T21:11:41.297Z,100926.36
2018-02-18T21:14:07.584Z,100918.80
2018-02-18T21:16:33.897Z,100923.54
2018-02-18T21:19:00.238Z,100929.17
2018-02-18T21:21:26.542Z,100927.14
2018-02-18T21:23:52.801Z,100920.28
2018-02-18T21:26:19.124Z,100927.63
2018-02-18T21:28:46.139Z,100928.07
2018-02-18T21:31:12.434Z,100926.75
2018-02-18T21:33:38.762Z,100922.77
2018-02-18T21:36:05.080Z,100922.92
2018-02-18T21:38:31.356Z,100926.55
2018-02-18T21:40:57.637Z,100925.57
2018-02-18T21:43:23.918Z,100919.10
2018-02-18T21:45:50.215Z,100923.43
2018-02-18T21:48:16.543Z,100920.94
2018-02-18T21:50:42.858Z,100924.73
2018-02-18T21:53:09.171Z,100921.94
2018-02-18T21:55:35.467Z,100920.06
2018-02-18T21:58:01.802Z,100914.09
2018-02-18T22:00:28.074Z,100908.35
2018-02-18T22:02:54.439Z,100904.22
2018-02-18T22:05:20.726Z,100897.95
2018-02-18T22:07:47.826Z,100907.41
2018-02-18T22:10:14.076Z,100894.22
2018-02-18T22:12:40.354Z,100907.74
2018-02-18T22:15:06.679Z,100905.27
2018-02-18T22:17:32.935Z,100903.69
2018-02-18T22:19:59.178Z,100905.97
2018-02-18T22:22:25.456Z,100899.66
2018-02-18T22:24:52.488Z,100895.06
2018-02-18T22:27:18.782Z,100892.84
2018-02-18T22:29:45.053Z,100888.36
2018-02-18T22:32:12.043Z,100883.23
2018-02-18T22:34:38.315Z,100882.52
2018-02-18T22:37:04.568Z,100881.36
2018-02-18T22:39:31.575Z,100882.87
2018-02-18T22:41:58.537Z,100881.30
2018-02-18T22:44:24.829Z,100874.94
2018-02-18T22:46:53.784Z,100877.13
2018-02-18T22:49:22.096Z,100873.30
2018-02-18T22:51:48.387Z,100867.66
2018-02-18T22:54:15.392Z,100863.95
2018-02-18T22:56:42.400Z,100863.61
2018-02-18T22:59:08.708Z,100862.75
2018-02-18T23:01:42.974Z,100864.95
2018-02-18T23:04:09.239Z,100865.58
2018-02-18T23:06:35.522Z,100869.00
2018-02-18T23:09:01.794Z,100861.80
2018-02-18T23:11:28.140Z,100871.61
2018-02-18T23:13:54.591Z,100872.23
2018-02-18T23:16:21.674Z,100859.18
2018-02-18T23:18:47.944Z,100857.46
2018-02-18T23:21:14.232Z,100854.09
2018-02-18T23:23:40.485Z,100852.83
2018-02-18T23:26:06.797Z,100848.56
2018-02-18T23:28:33.042Z,100844.88
2018-02-18T23:30:59.336Z,100844.67
2018-02-18T23:33:25.628Z,100847.93
2018-02-18T23:35:51.873Z,100844.61
2018-02-18T23:38:18.870Z,100833.45
2018-02-18T23:40:45.125Z,100834.88
2018-02-18T23:43:11.409Z,100834.07
2018-02-18T23:45:37.683Z,100832.07
2018-02-18T23:48:04.705Z,100829.16
2018-02-18T23:50:30.964Z,100827.45
2018-02-18T23:52:57.289Z,100825.01
2018-02-18T23:55:23.521Z,100828.48
2018-02-18T23:57:49.789Z,100824.33
